Terminal Aerodrome Forecast
Issued by NWS

Home | Current Version | Previous Version | Text Only | Print | Product List | Glossary On
Versions: 1 2 3 4 5 6 7 8 9 10 11 12 13 14 15 16
000
FTUS46 KLOX 080007 AAA
TAFPMD
TAF AMD
KPMD 080007Z 0800/0824 25018G24KT P6SM SKC
     FM080300 24012KT P6SM SKC
     FM080900 21008KT P6SM SKC
     FM081800 23012KT P6SM SKC
     FM082000 23015G25KT P6SM SKC
     FM082200 23023G31KT P6SM SKC=

USA.gov is the U.S. government's official web portal to all federal, state and local government web resources and services.